Burns, Tennessee
Current Conditions -  °F | °C
As of 3:53 AM on Saturday 20 Dec 2014 (Local Time) from KBNA Reporting Station
Clear Clear  
Wind Chill: 27°   Ceiling: Unl
Heat Index: 33°   Visibility: 10mi
Dew Point: 26°   Wind: 7mph
Humidity: 75%   Direction: 340°NNW
Pressure: 30.23"   Gusts: NA
Location:  36.05°N, 87.31°W
Report Text: KBNA 200953Z 34006KT 10SM CLR 01/M03 A3023 RMK AO2 SLP240 T00061033
Loading
Personal Weather Stations






























Interactive Weather Map New forecast layout! Learn more

10-Day Weather Forecast

Advertisements
Track Severe Weather on mobile